Time;durP1;ratioP1;P1;durP2;ratioP2;P2;SDS_P1;SDS_P2;PMS_P1;PMS_P2;Temp;Humidity;BMP_temperature;BMP_pressure;BME280_temperature;BME280_humidity;BME280_pressure;Samples;Min_cycle;Max_cycle;Signal;HPM_P1;HPM_P2
2022/05/10 00:00:51;;;;;;;;;;;;;;;;;;5101280;28;19934;-25
2022/05/10 00:03:17;;;;;;;;;;;;;;;;;;5100225;28;19922;-25
2022/05/10 00:05:44;;;;;;;;;;;;;;;;;;5100385;28;19936;-25
2022/05/10 00:08:11;;;;;;;;;;;;;;;;;;5099837;28;19960;-25
2022/05/10 00:10:38;;;;;;;;;;;;;;;;;;5099841;28;20304;-25
2022/05/10 00:13:05;;;;;;;;;;;;;;;;;;5100436;28;19919;-25
2022/05/10 00:15:33;;;;;;;;;;;;;;;;;;5100068;28;19908;-25
2022/05/10 00:18:00;;;;;;;;;;;;;;;;;;5099711;28;19927;-25
2022/05/10 00:20:27;;;;;;;;;;;;;;;;;;5099944;28;19908;-25
2022/05/10 00:22:54;;;;;;;;;;;;;;;;;;5101706;28;19972;-26
2022/05/10 00:25:21;;;;;;;;;;;;;;;;;;5100040;28;19920;-25
2022/05/10 00:27:49;;;;;;;;;;;;;;;;;;5081754;28;19916;-25
2022/05/10 00:30:16;;;;;;;;;;;;;;;;;;5099774;28;19919;-25
2022/05/10 00:32:43;;;;;;;;;;;;;;;;;;5081785;28;19991;-25
2022/05/10 00:35:10;;;;;;;;;;;;;;;;;;5099762;28;20232;-25
2022/05/10 00:37:37;;;;;;;;;;;;;;;;;;5081410;28;19927;-25
2022/05/10 00:40:03;;;;;;;;;;;;;;;;;;5070942;28;19930;-25
2022/05/10 00:42:30;;;;;;;;;;;;;;;;;;5079184;28;19912;-25
2022/05/10 00:44:57;;;;;;;;;;;;;;;;;;5078950;28;19912;-25
2022/05/10 00:47:24;;;;;;;;;;;;;;;;;;5061276;28;20409;-25
2022/05/10 00:49:51;;;;;;;;;;;;;;;;;;5079028;28;19917;-33
2022/05/10 00:52:18;;;;;;;;;;;;;;;;;;5061047;28;19954;-25
2022/05/10 00:54:45;;;;;;;;;;;;;;;;;;5079006;28;19935;-25
2022/05/10 00:57:11;;;;;;;;;;;;;;;;;;5061027;28;20018;-25
2022/05/10 00:59:38;;;;;;;;;;;;;;;;;;5079067;28;19919;-25
2022/05/10 01:02:04;;;;;;;;;;;;;;;;;;5078963;28;19913;-25
2022/05/10 01:04:32;;;;;;;;;;;;;;;;;;5079138;28;20329;-25
2022/05/10 01:06:59;;;;;;;;;;;;;;;;;;5078122;28;19912;-25
2022/05/10 01:09:30;;;;;;;;;;;;;;;;;;5078986;28;19909;-25
2022/05/10 01:11:56;;;;;;;;;;;;;;;;;;5079166;28;20349;-25
2022/05/10 01:14:24;;;;;;;;;;;;;;;;;;5078756;28;20002;-25
2022/05/10 01:16:50;;;;;;;;;;;;;;;;;;5060981;28;19927;-25
2022/05/10 01:19:17;;;;;;;;;;;;;;;;;;5078745;28;19938;-25
2022/05/10 01:21:45;;;;;;;;;;;;;;;;;;5078980;28;19909;-26
2022/05/10 01:24:11;;;;;;;;;;;;;;;;;;5079516;28;20007;-25
2022/05/10 01:29:23;;;;;;;;;;;;;;;;;;5077990;28;19924;-25
2022/05/10 01:33:29;;;;;;;;;;;;;;;;;;5078529;28;20369;-26
2022/05/10 01:34:37;;;;;;;;;;;;;;;;;;5077971;28;19975;-25
2022/05/10 01:37:04;;;;;;;;;;;;;;;;;;5060235;28;20370;-25
2022/05/10 01:39:31;;;;;;;;;;;;;;;;;;5060304;28;19917;-25
2022/05/10 01:41:57;;;;;;;;;;;;;;;;;;5077960;28;20373;-26
2022/05/10 01:44:24;;;;;;;;;;;;;;;;;;5060035;28;19919;-25
2022/05/10 01:46:51;;;;;;;;;;;;;;;;;;5077857;28;19966;-25
2022/05/10 01:49:18;;;;;;;;;;;;;;;;;;5077753;28;20320;-25
2022/05/10 01:51:45;;;;;;;;;;;;;;;;;;5060409;28;20003;-25
2022/05/10 01:54:12;;;;;;;;;;;;;;;;;;5078130;28;19912;-25
2022/05/10 01:56:39;;;;;;;;;;;;;;;;;;5077366;28;19947;-25
2022/05/10 01:59:06;;;;;;;;;;;;;;;;;;5077419;28;19909;-25
2022/05/10 02:01:33;;;;;;;;;;;;;;;;;;5077808;28;19912;-25
2022/05/10 02:04:01;;;;;;;;;;;;;;;;;;5059963;28;19913;-25
2022/05/10 02:06:28;;;;;;;;;;;;;;;;;;5060044;28;19923;-26
2022/05/10 02:08:55;;;;;;;;;;;;;;;;;;5077179;28;19909;-25
2022/05/10 02:11:22;;;;;;;;;;;;;;;;;;5059840;28;19917;-29
2022/05/10 02:13:49;;;;;;;;;;;;;;;;;;5059604;28;20393;-33
2022/05/10 02:16:16;;;;;;;;;;;;;;;;;;5077222;28;19923;-30
2022/05/10 02:18:43;;;;;;;;;;;;;;;;;;5058944;28;19923;-29
2022/05/10 02:21:10;;;;;;;;;;;;;;;;;;5059472;28;19920;-32
2022/05/10 02:23:37;;;;;;;;;;;;;;;;;;5059424;28;19912;-34
2022/05/10 02:26:04;;;;;;;;;;;;;;;;;;5077480;28;19924;-28
2022/05/10 02:28:31;;;;;;;;;;;;;;;;;;5059729;28;19923;-27
2022/05/10 02:30:58;;;;;;;;;;;;;;;;;;5077824;28;19948;-29
2022/05/10 02:33:25;;;;;;;;;;;;;;;;;;5059227;28;20404;-28
2022/05/10 02:35:55;;;;;;;;;;;;;;;;;;5077462;28;19932;-31
2022/05/10 02:38:22;;;;;;;;;;;;;;;;;;5077377;28;19919;-26
2022/05/10 02:40:51;;;;;;;;;;;;;;;;;;5093618;28;19942;-30
2022/05/10 02:43:21;;;;;;;;;;;;;;;;;;5097647;28;19912;-31
2022/05/10 02:45:48;;;;;;;;;;;;;;;;;;5079083;28;20262;-30
2022/05/10 02:48:15;;;;;;;;;;;;;;;;;;5097089;28;19922;-27
2022/05/10 02:50:42;;;;;;;;;;;;;;;;;;5097458;28;20238;-27
2022/05/10 02:53:09;;;;;;;;;;;;;;;;;;5097178;28;19912;-29
2022/05/10 02:55:36;;;;;;;;;;;;;;;;;;5097085;28;19908;-28
2022/05/10 02:58:04;;;;;;;;;;;;;;;;;;5079243;28;19931;-29
2022/05/10 03:00:31;;;;;;;;;;;;;;;;;;5097055;28;20230;-27
2022/05/10 03:02:58;;;;;;;;;;;;;;;;;;5096941;28;19919;-26
2022/05/10 03:05:24;;;;;;;;;;;;;;;;;;5097326;28;19908;-29
2022/05/10 03:07:53;;;;;;;;;;;;;;;;;;5097379;28;20003;-28
2022/05/10 03:10:20;;;;;;;;;;;;;;;;;;5096931;28;19916;-30
2022/05/10 03:12:47;;;;;;;;;;;;;;;;;;5097375;28;19912;-28
2022/05/10 03:15:14;;;;;;;;;;;;;;;;;;5096890;28;19912;-29
2022/05/10 03:17:41;;;;;;;;;;;;;;;;;;5097569;28;19927;-33
2022/05/10 03:20:08;;;;;;;;;;;;;;;;;;5096804;28;19908;-32
2022/05/10 03:22:35;;;;;;;;;;;;;;;;;;5096775;28;19916;-27
2022/05/10 03:25:02;;;;;;;;;;;;;;;;;;5097187;28;19916;-28
2022/05/10 03:27:29;;;;;;;;;;;;;;;;;;5096693;28;20319;-31
2022/05/10 03:29:57;;;;;;;;;;;;;;;;;;5080964;28;19915;-35
2022/05/10 03:32:23;;;;;;;;;;;;;;;;;;5082614;28;19916;-33
2022/05/10 03:34:55;;;;;;;;;;;;;;;;;;5100546;28;19908;-31
2022/05/10 03:37:21;;;;;;;;;;;;;;;;;;5100792;28;19959;-29
2022/05/10 03:39:48;;;;;;;;;;;;;;;;;;5100324;28;19942;-26
2022/05/10 03:42:15;;;;;;;;;;;;;;;;;;5100295;28;19976;-27
2022/05/10 03:44:43;;;;;;;;;;;;;;;;;;5100057;28;19908;-26
2022/05/10 03:47:10;;;;;;;;;;;;;;;;;;5099851;28;20252;-29
2022/05/10 03:49:37;;;;;;;;;;;;;;;;;;5100542;28;19908;-33
2022/05/10 03:52:03;;;;;;;;;;;;;;;;;;5099813;28;19951;-31
2022/05/10 03:54:30;;;;;;;;;;;;;;;;;;5100294;28;19973;-28
2022/05/10 03:56:59;;;;;;;;;;;;;;;;;;5082449;28;20013;-27
2022/05/10 03:59:26;;;;;;;;;;;;;;;;;;5100117;28;19953;-29
2022/05/10 04:01:53;;;;;;;;;;;;;;;;;;5099412;28;19930;-28
2022/05/10 04:04:20;;;;;;;;;;;;;;;;;;5099473;28;20184;-27
2022/05/10 04:06:48;;;;;;;;;;;;;;;;;;5099662;28;19943;-32
2022/05/10 04:09:14;;;;;;;;;;;;;;;;;;5100011;28;20185;-28
2022/05/10 04:11:41;;;;;;;;;;;;;;;;;;5099212;28;20375;-28
2022/05/10 04:14:08;;;;;;;;;;;;;;;;;;5099226;28;19912;-27
2022/05/10 04:16:35;;;;;;;;;;;;;;;;;;5098956;28;20266;-29
2022/05/10 04:19:02;;;;;;;;;;;;;;;;;;5099138;28;20299;-26
2022/05/10 04:21:30;;;;;;;;;;;;;;;;;;5099545;28;19935;-25
2022/05/10 04:23:57;;;;;;;;;;;;;;;;;;5081274;28;20355;-31
2022/05/10 04:26:24;;;;;;;;;;;;;;;;;;5081282;28;20317;-29
2022/05/10 04:28:54;;;;;;;;;;;;;;;;;;5081575;28;19919;-29
2022/05/10 04:31:21;;;;;;;;;;;;;;;;;;5081427;28;19912;-29
2022/05/10 04:33:48;;;;;;;;;;;;;;;;;;5081316;28;19969;-27
2022/05/10 04:36:16;;;;;;;;;;;;;;;;;;5081637;28;19912;-29
2022/05/10 04:38:46;;;;;;;;;;;;;;;;;;5100611;28;19950;-34
2022/05/10 04:41:26;;;;;;;;;;;;;;;;;;5060071;28;19927;-29
2022/05/10 04:43:53;;;;;;;;;;;;;;;;;;5080392;28;20443;-30
2022/05/10 04:46:21;;;;;;;;;;;;;;;;;;5078072;28;19990;-33
2022/05/10 04:48:48;;;;;;;;;;;;;;;;;;5078908;28;19912;-28
2022/05/10 04:51:17;;;;;;;;;;;;;;;;;;5078207;28;19916;-30
2022/05/10 04:53:44;;;;;;;;;;;;;;;;;;5078359;28;19955;-29
2022/05/10 04:56:11;;;;;;;;;;;;;;;;;;5078477;28;20003;-28
2022/05/10 04:58:46;;;;;;;;;;;;;;;;;;5077695;28;20003;-31
2022/05/10 05:01:14;;;;;;;;;;;;;;;;;;5078103;28;19993;-29
2022/05/10 05:03:42;;;;;;;;;;;;;;;;;;5060408;28;19912;-32
2022/05/10 05:06:09;;;;;;;;;;;;;;;;;;5077894;28;19924;-28
2022/05/10 05:08:36;;;;;;;;;;;;;;;;;;5060308;28;20278;-30
2022/05/10 05:11:02;;;;;;;;;;;;;;;;;;5078099;28;19916;-26
2022/05/10 05:13:29;;;;;;;;;;;;;;;;;;5077992;28;19912;-28
2022/05/10 05:15:59;;;;;;;;;;;;;;;;;;5060299;28;19909;-25
2022/05/10 05:21:19;;;;;;;;;;;;;;;;;;5078672;28;19924;-30
2022/05/10 05:23:46;;;;;;;;;;;;;;;;;;5078250;28;19916;-31
2022/05/10 05:26:14;;;;;;;;;;;;;;;;;;5078514;28;20353;-25
2022/05/10 05:28:42;;;;;;;;;;;;;;;;;;5079092;28;19965;-25
2022/05/10 05:31:09;;;;;;;;;;;;;;;;;;5078085;28;19912;-26
2022/05/10 05:33:45;;;;;;;;;;;;;;;;;;5077200;28;19943;-28
2022/05/10 05:36:12;;;;;;;;;;;;;;;;;;5059865;28;20326;-31
2022/05/10 05:38:39;;;;;;;;;;;;;;;;;;5059573;28;19962;-29
2022/05/10 05:41:09;;;;;;;;;;;;;;;;;;5096451;28;19920;-26
2022/05/10 05:43:38;;;;;;;;;;;;;;;;;;5097445;28;19916;-33
2022/05/10 05:48:59;;;;;;;;;;;;;;;;;;5097829;28;19919;-34
2022/05/10 05:51:27;;;;;;;;;;;;;;;;;;5097754;28;19962;-29
2022/05/10 05:53:53;;;;;;;;;;;;;;;;;;5096900;28;20029;-30
2022/05/10 05:56:21;;;;;;;;;;;;;;;;;;5079804;28;19908;-29
2022/05/10 05:58:49;;;;;;;;;;;;;;;;;;5096999;28;20005;-26
2022/05/10 06:01:16;;;;;;;;;;;;;;;;;;5080295;28;20004;-33
2022/05/10 06:03:46;;;;;;;;;;;;;;;;;;5097981;28;20249;-27
2022/05/10 06:06:15;;;;;;;;;;;;;;;;;;5097629;28;20266;-28
2022/05/10 06:08:42;;;;;;;;;;;;;;;;;;5097133;28;19914;-31
2022/05/10 06:11:11;;;;;;;;;;;;;;;;;;5078530;28;20299;-27
2022/05/10 06:13:38;;;;;;;;;;;;;;;;;;5077876;28;19962;-28
2022/05/10 06:16:13;;;;;;;;;;;;;;;;;;5096502;28;19983;-27
2022/05/10 06:18:41;;;;;;;;;;;;;;;;;;5078333;28;19989;-25
2022/05/10 06:21:11;;;;;;;;;;;;;;;;;;5096016;28;20020;-27
2022/05/10 06:23:40;;;;;;;;;;;;;;;;;;5096114;28;19911;-27
2022/05/10 06:26:07;;;;;;;;;;;;;;;;;;5096127;28;19908;-25
2022/05/10 06:28:34;;;;;;;;;;;;;;;;;;5096923;28;19919;-28
2022/05/10 06:31:02;;;;;;;;;;;;;;;;;;5078176;28;19908;-26
2022/05/10 06:33:30;;;;;;;;;;;;;;;;;;5096375;28;20354;-31
2022/05/10 06:35:58;;;;;;;;;;;;;;;;;;5096224;28;19918;-28
2022/05/10 06:38:30;;;;;;;;;;;;;;;;;;5097067;28;20075;-30
2022/05/10 06:41:01;;;;;;;;;;;;;;;;;;5096245;28;20349;-32
2022/05/10 06:43:38;;;;;;;;;;;;;;;;;;5097211;28;20297;-27
2022/05/10 06:46:05;;;;;;;;;;;;;;;;;;5097127;28;19915;-29
2022/05/10 06:48:35;;;;;;;;;;;;;;;;;;5079383;28;19923;-26
2022/05/10 06:51:04;;;;;;;;;;;;;;;;;;5097136;28;20274;-31
2022/05/10 06:53:36;;;;;;;;;;;;;;;;;;5097399;28;19912;-25
2022/05/10 06:56:05;;;;;;;;;;;;;;;;;;5079574;28;19916;-26
2022/05/10 06:58:32;;;;;;;;;;;;;;;;;;5096599;28;19989;-28
2022/05/10 07:01:04;;;;;;;;;;;;;;;;;;5078861;28;19919;-25
2022/05/10 07:03:32;;;;;;;;;;;;;;;;;;5085258;28;19912;-29
2022/05/10 07:14:30;;;;;;;;;;;;;;;;;;5105181;28;19918;-27
2022/05/10 07:22:37;;;;;;;;;;;;;;;;;;5099980;28;20324;-22
2022/05/10 07:25:05;;;;;;;;;;;;;;;;;;5100995;28;20345;-27
2022/05/10 07:27:31;;;;;;;;;;;;;;;;;;5104197;28;19931;-27
2022/05/10 07:30:00;;;;;;;;;;;;;;;;;;5118496;28;19992;-27
2022/05/10 07:35:12;;;;;;;;;;;;;;;;;;5120089;28;19964;-25
2022/05/10 07:37:40;;;;;;;;;;;;;;;;;;5118789;28;20049;-25
2022/05/10 07:40:09;;;;;;;;;;;;;;;;;;5118791;28;19919;-25
2022/05/10 07:42:37;;;;;;;;;;;;;;;;;;5100679;28;19926;-26
2022/05/10 07:45:06;;;;;;;;;;;;;;;;;;5118853;28;19919;-25
2022/05/10 07:47:33;;;;;;;;;;;;;;;;;;5100473;28;20266;-26
2022/05/10 07:50:01;;;;;;;;;;;;;;;;;;5100761;28;19907;-25
2022/05/10 07:52:29;;;;;;;;;;;;;;;;;;5118951;28;19912;-25
2022/05/10 07:54:58;;;;;;;;;;;;;;;;;;5118481;28;20383;-25
2022/05/10 07:57:27;;;;;;;;;;;;;;;;;;5119198;28;19968;-25
2022/05/10 07:59:56;;;;;;;;;;;;;;;;;;5103912;28;20019;-26
2022/05/10 08:02:23;;;;;;;;;;;;;;;;;;5120412;28;19927;-29
2022/05/10 08:04:54;;;;;;;;;;;;;;;;;;5121344;28;19911;-25
2022/05/10 08:07:22;;;;;;;;;;;;;;;;;;5119885;28;19912;-25
2022/05/10 08:09:55;;;;;;;;;;;;;;;;;;5101885;28;20229;-26
2022/05/10 08:12:27;;;;;;;;;;;;;;;;;;5120567;28;20020;-26
2022/05/10 08:14:56;;;;;;;;;;;;;;;;;;5119587;28;20258;-25
2022/05/10 08:17:23;;;;;;;;;;;;;;;;;;5119187;28;19922;-25
2022/05/10 08:19:52;;;;;;;;;;;;;;;;;;5119570;28;19920;-24
2022/05/10 08:22:19;;;;;;;;;;;;;;;;;;5101581;28;20300;-25
2022/05/10 08:24:49;;;;;;;;;;;;;;;;;;5120092;28;19927;-25
2022/05/10 08:27:20;;;;;;;;;;;;;;;;;;5119571;28;19943;-25
2022/05/10 08:29:50;;;;;;;;;;;;;;;;;;5120388;28;19922;-26
2022/05/10 08:32:19;;;;;;;;;;;;;;;;;;5120032;28;19912;-26
2022/05/10 08:34:47;;;;;;;;;;;;;;;;;;5120198;28;19923;-25
2022/05/10 08:37:14;;;;;;;;;;;;;;;;;;5119317;28;20011;-25
2022/05/10 08:39:47;;;;;;;;;;;;;;;;;;5119606;28;19908;-25
2022/05/10 08:42:15;;;;;;;;;;;;;;;;;;5100476;28;19911;-25
2022/05/10 08:44:46;;;;;;;;;;;;;;;;;;5119515;28;20239;-25
2022/05/10 08:47:20;;;;;;;;;;;;;;;;;;5119094;28;19941;-25
2022/05/10 08:50:01;;;;;;;;;;;;;;;;;;5101507;28;19918;-25
2022/05/10 08:52:30;;;;;;;;;;;;;;;;;;5119680;28;20276;-25
2022/05/10 08:54:59;;;;;;;;;;;;;;;;;;5101559;28;19908;-25
2022/05/10 08:57:26;;;;;;;;;;;;;;;;;;5119338;28;20057;-25
2022/05/10 08:59:53;;;;;;;;;;;;;;;;;;5100747;28;19907;-24
2022/05/10 09:02:21;;;;;;;;;;;;;;;;;;5118870;28;19999;-24
2022/05/10 09:04:50;;;;;;;;;;;;;;;;;;5101217;28;19964;-25
2022/05/10 09:07:19;;;;;;;;;;;;;;;;;;5118891;28;19912;-24
2022/05/10 09:12:40;;;;;;;;;;;;;;;;;;5119590;28;19927;-24
2022/05/10 09:20:52;;;;;;;;;;;;;;;;;;5078335;28;19931;-24
2022/05/10 09:23:21;;;;;;;;;;;;;;;;;;5078398;28;20216;-24
2022/05/10 09:25:56;;;;;;;;;;;;;;;;;;5079812;28;20007;-24
2022/05/10 09:28:31;;;;;;;;;;;;;;;;;;5079142;28;19916;-24
2022/05/10 09:36:31;;;;;;;;;;;;;;;;;;5078657;28;20231;-24
2022/05/10 09:39:00;;;;;;;;;;;;;;;;;;5078395;28;19916;-24
2022/05/10 09:41:29;;;;;;;;;;;;;;;;;;5078327;28;19912;-25
2022/05/10 09:44:03;;;;;;;;;;;;;;;;;;5076441;28;19948;-24
2022/05/10 09:46:34;;;;;;;;;;;;;;;;;;5077987;28;20053;-25
2022/05/10 09:49:02;;;;;;;;;;;;;;;;;;5076646;28;19952;-25
2022/05/10 09:51:29;;;;;;;;;;;;;;;;;;5076799;28;19909;-25
2022/05/10 09:54:01;;;;;;;;;;;;;;;;;;5077700;28;19916;-24
2022/05/10 09:56:30;;;;;;;;;;;;;;;;;;5076482;28;19913;-24
2022/05/10 09:58:58;;;;;;;;;;;;;;;;;;5077467;28;19999;-24
2022/05/10 10:01:29;;;;;;;;;;;;;;;;;;5077496;28;19927;-24
2022/05/10 10:03:59;;;;;;;;;;;;;;;;;;5077415;28;19916;-24
2022/05/10 10:06:35;;;;;;;;;;;;;;;;;;5077175;28;20347;-24
2022/05/10 10:09:04;;;;;;;;;;;;;;;;;;5076650;28;19962;-24
2022/05/10 10:11:41;;;;;;;;;;;;;;;;;;5076524;28;19908;-24
2022/05/10 10:14:15;;;;;;;;;;;;;;;;;;5076755;28;20309;-24
2022/05/10 10:16:48;;;;;;;;;;;;;;;;;;5078407;28;19919;-24
2022/05/10 10:19:20;;;;;;;;;;;;;;;;;;5081041;28;19920;-24
2022/05/10 10:22:03;;;;;;;;;;;;;;;;;;5098485;28;20006;-24
2022/05/10 10:24:31;;;;;;;;;;;;;;;;;;5078735;28;19912;-24
2022/05/10 10:29:55;;;;;;;;;;;;;;;;;;5099093;28;19919;-25
2022/05/10 10:35:15;;;;;;;;;;;;;;;;;;5097692;28;19922;-25
2022/05/10 10:37:45;;;;;;;;;;;;;;;;;;5098599;28;20010;-25
2022/05/10 10:43:07;;;;;;;;;;;;;;;;;;5098532;28;19919;-25
2022/05/10 10:45:42;;;;;;;;;;;;;;;;;;5097230;28;19981;-25
2022/05/10 10:48:24;;;;;;;;;;;;;;;;;;5097648;28;19929;-25
2022/05/10 10:50:55;;;;;;;;;;;;;;;;;;5098810;28;19915;-25
2022/05/10 10:53:23;;;;;;;;;;;;;;;;;;5079651;28;19954;-25
2022/05/10 10:55:56;;;;;;;;;;;;;;;;;;5080182;28;19913;-23
2022/05/10 11:01:13;;;;;;;;;;;;;;;;;;5097153;28;19926;-24
2022/05/10 11:03:43;;;;;;;;;;;;;;;;;;5076095;28;20325;-24
2022/05/10 11:06:19;;;;;;;;;;;;;;;;;;5097228;28;19916;-24
2022/05/10 11:08:52;;;;;;;;;;;;;;;;;;5078471;28;19999;-23
2022/05/10 11:11:24;;;;;;;;;;;;;;;;;;5077480;28;19912;-24
2022/05/10 11:13:58;;;;;;;;;;;;;;;;;;5094943;28;20269;-24
2022/05/10 11:16:33;;;;;;;;;;;;;;;;;;5094975;28;19990;-23
2022/05/10 11:22:08;;;;;;;;;;;;;;;;;;5118255;28;20395;-23
2022/05/10 11:24:39;;;;;;;;;;;;;;;;;;5099048;28;20302;-24
2022/05/10 11:29:47;;;;;;;;;;;;;;;;;;5096330;28;19988;-24
2022/05/10 11:32:15;;;;;;;;;;;;;;;;;;5098071;28;20233;-24
2022/05/10 11:34:44;;;;;;;;;;;;;;;;;;5097217;28;19919;-24
2022/05/10 11:37:15;;;;;;;;;;;;;;;;;;5079288;28;19924;-24
2022/05/10 11:39:47;;;;;;;;;;;;;;;;;;5097725;28;20277;-25
2022/05/10 11:42:40;;;;;;;;;;;;;;;;;;5096889;28;20354;-24
2022/05/10 11:45:09;;;;;;;;;;;;;;;;;;5078736;28;19985;-25
2022/05/10 11:47:41;;;;;;;;;;;;;;;;;;5098069;28;19919;-24
2022/05/10 11:50:10;;;;;;;;;;;;;;;;;;5097527;28;20258;-24
2022/05/10 11:52:43;;;;;;;;;;;;;;;;;;5100668;28;19912;-24
2022/05/10 11:55:16;;;;;;;;;;;;;;;;;;5100927;28;19920;-24
2022/05/10 11:58:12;;;;;;;;;;;;;;;;;;5082301;28;19913;-25
2022/05/10 12:03:25;;;;;;;;;;;;;;;;;;5452905;22;19931;-24
2022/05/10 12:08:44;;;;;;;;;;;;;;;;;;5101257;28;20329;-25
2022/05/10 12:11:15;;;;;;;;;;;;;;;;;;5083409;28;19979;-24
2022/05/10 12:22:17;;;;;;;;;;;;;;;;;;5101536;28;19970;-24
2022/05/10 12:24:52;;;;;;;;;;;;;;;;;;5101341;28;19987;-25
2022/05/10 12:27:20;;;;;;;;;;;;;;;;;;5100764;28;19912;-25
2022/05/10 12:29:53;;;;;;;;;;;;;;;;;;5101707;28;19972;-24
2022/05/10 12:32:23;;;;;;;;;;;;;;;;;;5100124;28;19919;-24
2022/05/10 12:34:52;;;;;;;;;;;;;;;;;;5101169;28;19923;-25
2022/05/10 12:37:28;;;;;;;;;;;;;;;;;;5082324;28;19916;-25
2022/05/10 12:40:00;;;;;;;;;;;;;;;;;;5083377;28;20284;-24
2022/05/10 12:42:33;;;;;;;;;;;;;;;;;;5098973;28;19958;-25
2022/05/10 12:47:51;;;;;;;;;;;;;;;;;;5099611;28;20348;-24
2022/05/10 12:50:20;;;;;;;;;;;;;;;;;;5100129;28;19978;-24
2022/05/10 12:52:52;;;;;;;;;;;;;;;;;;5099330;28;19912;-24
2022/05/10 12:55:20;;;;;;;;;;;;;;;;;;5099496;28;19946;-24
2022/05/10 12:57:50;;;;;;;;;;;;;;;;;;5080795;28;19930;-24
2022/05/10 13:00:21;;;;;;;;;;;;;;;;;;5098875;28;19943;-24
2022/05/10 13:02:56;;;;;;;;;;;;;;;;;;5098322;28;19976;-24
2022/05/10 13:05:32;;;;;;;;;;;;;;;;;;5081283;28;19999;-24
2022/05/10 13:10:52;;;;;;;;;;;;;;;;;;5101367;28;19922;-24
2022/05/10 13:13:21;;;;;;;;;;;;;;;;;;5099484;28;19935;-24
2022/05/10 13:18:41;;;;;;;;;;;;;;;;;;5100742;28;19934;-24
2022/05/10 13:21:20;;;;;;;;;;;;;;;;;;5099210;28;19927;-25
2022/05/10 13:23:50;;;;;;;;;;;;;;;;;;5099180;28;20004;-23
2022/05/10 13:26:17;;;;;;;;;;;;;;;;;;5080675;28;19938;-23
2022/05/10 13:28:52;;;;;;;;;;;;;;;;;;5099637;28;19908;-23
2022/05/10 13:31:27;;;;;;;;;;;;;;;;;;5080794;28;19912;-23
2022/05/10 13:33:55;;;;;;;;;;;;;;;;;;5099301;28;19947;-23
2022/05/10 13:36:23;;;;;;;;;;;;;;;;;;5098185;28;19908;-24
2022/05/10 13:38:51;;;;;;;;;;;;;;;;;;5098799;28;20342;-24
2022/05/10 13:41:18;;;;;;;;;;;;;;;;;;5098980;28;19913;-24
2022/05/10 13:43:46;;;;;;;;;;;;;;;;;;5081177;28;19940;-25
2022/05/10 13:46:18;;;;;;;;;;;;;;;;;;5098423;28;20312;-24
2022/05/10 13:48:46;;;;;;;;;;;;;;;;;;5080200;28;19912;-24
2022/05/10 13:51:16;;;;;;;;;;;;;;;;;;5079921;28;19912;-24
2022/05/10 13:53:51;;;;;;;;;;;;;;;;;;5099631;28;19934;-24
2022/05/10 13:56:20;;;;;;;;;;;;;;;;;;5099761;28;19912;-24
2022/05/10 13:58:47;;;;;;;;;;;;;;;;;;5099447;28;20018;-24
2022/05/10 14:01:15;;;;;;;;;;;;;;;;;;5080211;28;19912;-23
2022/05/10 14:03:42;;;;;;;;;;;;;;;;;;5079846;28;19920;-24
2022/05/10 14:06:14;;;;;;;;;;;;;;;;;;5080223;28;19923;-24
2022/05/10 14:08:43;;;;;;;;;;;;;;;;;;5097706;28;20001;-24
2022/05/10 14:11:16;;;;;;;;;;;;;;;;;;5097857;28;20338;-25
2022/05/10 14:13:44;;;;;;;;;;;;;;;;;;5079229;28;19937;-24
2022/05/10 14:16:14;;;;;;;;;;;;;;;;;;5080490;28;19908;-23
2022/05/10 14:18:47;;;;;;;;;;;;;;;;;;5080491;28;19916;-23
2022/05/10 14:21:14;;;;;;;;;;;;;;;;;;5097718;28;20364;-24
2022/05/10 14:23:43;;;;;;;;;;;;;;;;;;5097394;28;19952;-24
2022/05/10 14:26:12;;;;;;;;;;;;;;;;;;5077635;28;19940;-24
2022/05/10 14:28:41;;;;;;;;;;;;;;;;;;5078953;28;19912;-24
2022/05/10 14:31:09;;;;;;;;;;;;;;;;;;5077497;28;19965;-24
2022/05/10 14:47:57;;;;;;;;;;;;;;;;;;5544140;22;19978;-25
2022/05/10 14:50:27;;;;;;;;;;;;;;;;;;5074603;28;19912;-25
2022/05/10 14:52:56;;;;;;;;;;;;;;;;;;5075409;28;19912;-25
2022/05/10 14:55:23;;;;;;;;;;;;;;;;;;5056987;28;19912;-25
2022/05/10 14:57:51;;;;;;;;;;;;;;;;;;5074306;28;20258;-25
2022/05/10 15:00:29;;;;;;;;;;;;;;;;;;5075082;28;19924;-25
2022/05/10 15:03:03;;;;;;;;;;;;;;;;;;5074941;28;19909;-25
2022/05/10 15:05:30;;;;;;;;;;;;;;;;;;5058330;28;20330;-25
2022/05/10 15:07:59;;;;;;;;;;;;;;;;;;5058753;28;19913;-25
2022/05/10 15:10:27;;;;;;;;;;;;;;;;;;5057428;28;19928;-24
2022/05/10 15:13:07;;;;;;;;;;;;;;;;;;5055796;28;19938;-26
2022/05/10 15:15:34;;;;;;;;;;;;;;;;;;5072988;28;19908;-26
2022/05/10 15:20:44;;;;;;;;;;;;;;;;;;5073097;28;19919;-26
2022/05/10 15:23:10;;;;;;;;;;;;;;;;;;5054962;28;19913;-26
2022/05/10 15:25:38;;;;;;;;;;;;;;;;;;5073950;28;19908;-26
2022/05/10 15:28:04;;;;;;;;;;;;;;;;;;5058687;28;20246;-26
2022/05/10 15:30:31;;;;;;;;;;;;;;;;;;5058770;28;19952;-26
2022/05/10 15:32:57;;;;;;;;;;;;;;;;;;5076638;28;20015;-26
2022/05/10 15:35:23;;;;;;;;;;;;;;;;;;5076301;28;19987;-26
2022/05/10 15:37:49;;;;;;;;;;;;;;;;;;5076573;28;20274;-26
2022/05/10 15:40:16;;;;;;;;;;;;;;;;;;5076800;28;20350;-26
2022/05/10 15:42:41;;;;;;;;;;;;;;;;;;5059607;28;20250;-26
2022/05/10 15:45:08;;;;;;;;;;;;;;;;;;5077335;28;19913;-26
2022/05/10 15:47:34;;;;;;;;;;;;;;;;;;5076895;28;19912;-26
2022/05/10 15:50:00;;;;;;;;;;;;;;;;;;5077627;28;19965;-26
2022/05/10 15:52:26;;;;;;;;;;;;;;;;;;5059587;28;20089;-26
2022/05/10 15:54:52;;;;;;;;;;;;;;;;;;5077564;28;20361;-26
2022/05/10 15:57:18;;;;;;;;;;;;;;;;;;5076970;28;19916;-26
2022/05/10 15:59:44;;;;;;;;;;;;;;;;;;5059660;28;20304;-26
2022/05/10 16:02:11;;;;;;;;;;;;;;;;;;5077244;28;20007;-27
2022/05/10 16:04:37;;;;;;;;;;;;;;;;;;5059457;28;19966;-26
2022/05/10 16:07:04;;;;;;;;;;;;;;;;;;5078579;28;19923;-25
2022/05/10 16:09:31;;;;;;;;;;;;;;;;;;5081423;28;19909;-25
2022/05/10 16:12:05;;;;;;;;;;;;;;;;;;5081243;28;19913;-25
2022/05/10 16:14:34;;;;;;;;;;;;;;;;;;5078847;28;19912;-25
2022/05/10 16:17:07;;;;;;;;;;;;;;;;;;5078738;28;20003;-25
2022/05/10 16:19:34;;;;;;;;;;;;;;;;;;5078308;28;19912;-25
2022/05/10 16:22:06;;;;;;;;;;;;;;;;;;5077237;28;20231;-25
2022/05/10 16:24:35;;;;;;;;;;;;;;;;;;5076636;28;19912;-25
2022/05/10 16:43:53;;;;;;;;;;;;;;;;;;5199568;22;20350;-26
2022/05/10 16:46:23;;;;;;;;;;;;;;;;;;5076666;28;20339;-24
2022/05/10 16:48:50;;;;;;;;;;;;;;;;;;5060460;28;19948;-24
2022/05/10 16:51:17;;;;;;;;;;;;;;;;;;5078402;28;19940;-24
2022/05/10 16:53:45;;;;;;;;;;;;;;;;;;5061143;28;20301;-25
2022/05/10 16:56:12;;;;;;;;;;;;;;;;;;5078145;28;19935;-25
2022/05/10 16:58:38;;;;;;;;;;;;;;;;;;5078469;28;20254;-25
2022/05/10 17:01:06;;;;;;;;;;;;;;;;;;5078827;28;19912;-25
2022/05/10 17:03:34;;;;;;;;;;;;;;;;;;5060390;28;19916;-26
2022/05/10 17:06:00;;;;;;;;;;;;;;;;;;5078227;28;19916;-25
2022/05/10 17:08:27;;;;;;;;;;;;;;;;;;5078751;28;20009;-24
2022/05/10 17:10:55;;;;;;;;;;;;;;;;;;5078189;28;19909;-25
2022/05/10 17:13:22;;;;;;;;;;;;;;;;;;5080108;28;19955;-25
2022/05/10 17:15:49;;;;;;;;;;;;;;;;;;5078528;28;19966;-25
2022/05/10 17:18:16;;;;;;;;;;;;;;;;;;5078165;28;19926;-25
2022/05/10 17:20:43;;;;;;;;;;;;;;;;;;5060750;28;20386;-25
2022/05/10 17:23:10;;;;;;;;;;;;;;;;;;5060520;28;19917;-25
2022/05/10 17:25:40;;;;;;;;;;;;;;;;;;5078255;28;20011;-25
2022/05/10 17:30:40;;;;;;;;;;;;;;;;;;5077604;28;19909;-25
2022/05/10 17:33:08;;;;;;;;;;;;;;;;;;5079137;28;19912;-25
2022/05/10 17:38:26;;;;;;;;;;;;;;;;;;5082070;28;19931;-25
2022/05/10 17:40:56;;;;;;;;;;;;;;;;;;5081185;28;19947;-25
2022/05/10 17:43:30;;;;;;;;;;;;;;;;;;5078177;28;19982;-26
2022/05/10 17:48:49;;;;;;;;;;;;;;;;;;5078780;28;19919;-25
2022/05/10 17:51:16;;;;;;;;;;;;;;;;;;5062181;28;20362;-26
2022/05/10 17:53:45;;;;;;;;;;;;;;;;;;5061918;28;19913;-25
2022/05/10 17:56:15;;;;;;;;;;;;;;;;;;5080470;28;20250;-25
2022/05/10 17:58:44;;;;;;;;;;;;;;;;;;5063318;28;19984;-25
2022/05/10 18:01:14;;;;;;;;;;;;;;;;;;5062689;28;19924;-25
2022/05/10 18:03:48;;;;;;;;;;;;;;;;;;5062837;28;19920;-25
2022/05/10 18:06:31;;;;;;;;;;;;;;;;;;5078789;28;20007;-25
2022/05/10 18:09:02;;;;;;;;;;;;;;;;;;5063762;28;19913;-25
2022/05/10 18:11:36;;;;;;;;;;;;;;;;;;5082342;28;19923;-25
2022/05/10 18:14:09;;;;;;;;;;;;;;;;;;5080799;28;20227;-25
2022/05/10 18:19:32;;;;;;;;;;;;;;;;;;5081943;28;19998;-25
2022/05/10 18:22:02;;;;;;;;;;;;;;;;;;5077933;28;20404;-25
2022/05/10 18:27:25;;;;;;;;;;;;;;;;;;5079997;28;19973;-26
2022/05/10 18:29:55;;;;;;;;;;;;;;;;;;5064225;28;20015;-25
2022/05/10 18:32:23;;;;;;;;;;;;;;;;;;5063410;28;19917;-25
2022/05/10 18:37:43;;;;;;;;;;;;;;;;;;5080780;28;19927;-24
2022/05/10 18:40:13;;;;;;;;;;;;;;;;;;5059128;28;19913;-24
2022/05/10 18:42:41;;;;;;;;;;;;;;;;;;5079203;28;20311;-25
2022/05/10 18:48:20;;;;;;;;;;;;;;;;;;4247485;28;22669;-25
2022/05/10 18:50:48;;;;;;;;;;;;;;;;;;5081403;28;19971;-25
2022/05/10 18:53:16;;;;;;;;;;;;;;;;;;5058781;28;20409;-25
2022/05/10 18:55:43;;;;;;;;;;;;;;;;;;5076867;28;19965;-25
2022/05/10 18:58:10;;;;;;;;;;;;;;;;;;5076351;28;20264;-25
2022/05/10 19:00:38;;;;;;;;;;;;;;;;;;5077959;28;19912;-25
2022/05/10 19:03:06;;;;;;;;;;;;;;;;;;5067239;28;20396;-25
2022/05/10 19:05:38;;;;;;;;;;;;;;;;;;5085671;28;20255;-25
2022/05/10 19:08:26;;;;;;;;;;;;;;;;;;5082953;28;19943;-25
2022/05/10 19:10:55;;;;;;;;;;;;;;;;;;5066047;28;19955;-25